createdAt,value
2018-09-15T09:46:07.430Z,19.14
2018-09-15T09:47:24.027Z,19.62
2018-09-15T09:48:24.004Z,19.55
2018-09-15T09:49:24.012Z,19.47
2018-09-15T09:50:24.130Z,19.62
2018-09-15T09:51:23.970Z,19.64
2018-09-15T09:52:24.000Z,19.66
2018-09-15T09:53:23.944Z,20.09
2018-09-15T09:54:23.938Z,20.13
2018-09-15T09:55:23.942Z,20.14
2018-09-15T09:56:23.927Z,19.99
2018-09-15T09:57:23.918Z,19.59
2018-09-15T09:58:23.898Z,19.37
2018-09-15T09:59:23.882Z,19.11
2018-09-15T10:00:23.883Z,18.96
2018-09-15T10:01:23.975Z,18.80
2018-09-15T10:02:23.995Z,18.62
2018-09-15T10:03:23.838Z,18.45
2018-09-15T10:04:23.854Z,18.31
2018-09-15T10:05:23.816Z,18.38
2018-09-15T10:06:30.779Z,18.22
2018-09-15T10:07:23.796Z,18.15
2018-09-15T10:08:23.811Z,18.22
2018-09-15T10:09:23.817Z,18.16
2018-09-15T10:10:23.756Z,18.19
2018-09-15T10:11:23.751Z,18.28
2018-09-15T10:12:23.804Z,18.23
2018-09-15T10:13:23.730Z,18.25
2018-09-15T10:14:23.715Z,18.20
2018-09-15T10:15:23.712Z,18.20
2018-09-15T10:16:23.708Z,18.20
2018-09-15T10:17:23.681Z,18.15
2018-09-15T10:18:23.721Z,18.29
2018-09-15T10:19:23.659Z,18.37
2018-09-15T10:20:23.652Z,18.45
2018-09-15T10:21:23.645Z,18.49
2018-09-15T10:22:23.659Z,18.73
2018-09-15T10:23:23.718Z,18.81
2018-09-15T10:24:23.614Z,18.81
2018-09-15T10:25:23.596Z,18.88
2018-09-15T10:26:23.585Z,18.93
2018-09-15T10:27:23.600Z,19.09
2018-09-15T10:28:23.592Z,19.12
2018-09-15T10:29:23.559Z,18.96
2018-09-15T10:30:23.545Z,18.89
2018-09-15T10:31:23.548Z,18.81
2018-09-15T10:32:23.716Z,18.65
2018-09-15T10:33:23.870Z,18.47
2018-09-15T10:35:25.229Z,18.15
2018-09-15T10:36:23.584Z,17.97
2018-09-15T10:37:44.648Z,17.92
2018-09-15T10:39:45.631Z,17.79
2018-09-15T10:40:44.624Z,17.78
2018-09-15T10:41:23.528Z,17.74
2018-09-15T10:44:30.657Z,17.63
2018-09-15T10:44:34.043Z,17.59
2018-09-15T10:46:42.172Z,17.54
2018-09-15T10:48:43.292Z,17.52
2018-09-15T10:50:04.077Z,17.41
2018-09-15T10:50:42.972Z,17.44
2018-09-15T10:51:41.958Z,17.42
2018-09-15T10:53:03.138Z,17.30
2018-09-15T10:56:04.578Z,17.19
2018-09-15T11:00:11.980Z,17.16
2018-09-15T11:01:11.920Z,17.12
2018-09-15T11:02:33.038Z,17.01
2018-09-15T11:03:11.824Z,17.02
2018-09-15T11:05:36.694Z,17.04
2018-09-15T11:06:34.575Z,16.94
2018-09-15T11:07:33.260Z,16.99
2018-09-15T11:10:34.236Z,16.99
2018-09-15T11:11:33.098Z,16.94
2018-09-15T11:12:33.088Z,16.94
2018-09-15T11:13:33.108Z,17.02
2018-09-15T11:14:33.372Z,16.91
2018-09-15T11:15:33.182Z,17.01
2018-09-15T11:18:03.569Z,17.12
2018-09-15T11:19:03.889Z,17.22
2018-09-15T11:19:42.251Z,17.20
2018-09-15T11:20:42.225Z,17.27
2018-09-15T11:21:42.700Z,17.31
2018-09-15T11:22:42.233Z,17.39
2018-09-15T11:23:42.174Z,17.39
2018-09-15T11:24:42.181Z,17.45
2018-09-15T11:25:42.216Z,17.52
2018-09-15T11:26:42.165Z,17.44
2018-09-15T11:27:42.146Z,17.38
2018-09-15T11:28:42.166Z,17.38
2018-09-15T11:29:42.117Z,17.36
2018-09-15T11:30:42.240Z,17.41
2018-09-15T11:31:42.089Z,17.42
2018-09-15T11:32:42.076Z,17.41
2018-09-15T11:33:42.079Z,17.59
2018-09-15T11:34:53.342Z,17.56
2018-09-15T11:35:43.085Z,17.59
2018-09-15T11:36:42.078Z,17.67
2018-09-15T11:37:42.044Z,17.78
2018-09-15T11:38:42.022Z,17.80
2018-09-15T11:39:42.019Z,17.90
2018-09-15T11:40:41.984Z,17.95
2018-09-15T11:41:42.003Z,17.98
2018-09-15T11:42:41.975Z,18.07
2018-09-15T11:44:43.127Z,18.10
2018-09-15T11:45:41.951Z,18.13
2018-09-15T11:46:42.042Z,18.19
2018-09-15T11:47:41.911Z,18.29
2018-09-15T11:48:41.910Z,18.25
2018-09-15T11:49:41.916Z,18.40
2018-09-15T11:50:41.923Z,18.34
2018-09-15T11:51:41.866Z,18.44
2018-09-15T11:52:41.911Z,18.43
2018-09-15T11:54:43.066Z,18.40
2018-09-15T11:55:41.878Z,18.49
2018-09-15T11:56:41.830Z,18.53
2018-09-15T11:57:41.832Z,18.58
2018-09-15T11:58:41.810Z,18.66
2018-09-15T11:59:41.783Z,18.74
2018-09-15T12:00:41.779Z,18.78
2018-09-15T12:01:41.808Z,18.95
2018-09-15T12:03:42.921Z,19.21
2018-09-15T12:04:41.734Z,19.26
2018-09-15T12:05:41.727Z,19.30
2018-09-15T12:06:41.730Z,19.31
2018-09-15T12:07:41.784Z,19.39
2018-09-15T12:08:41.670Z,19.49
2018-09-15T12:09:41.674Z,19.47
2018-09-15T12:10:41.657Z,19.44
2018-09-15T12:13:42.786Z,19.16
2018-09-15T12:14:41.605Z,19.22
2018-09-15T12:15:41.612Z,19.09
2018-09-15T12:17:42.768Z,19.08
2018-09-15T12:18:41.619Z,18.96
2018-09-15T12:19:41.567Z,18.98
2018-09-15T12:22:42.709Z,18.68
2018-09-15T12:23:41.511Z,18.66
2018-09-15T12:24:41.536Z,18.65
2018-09-15T12:25:41.503Z,18.66
2018-09-15T12:27:42.760Z,18.62
2018-09-15T12:28:41.490Z,18.62
2018-09-15T12:29:41.461Z,18.63
2018-09-15T12:30:41.425Z,18.70
2018-09-15T12:31:41.416Z,18.70
2018-09-15T12:32:41.413Z,18.83
2018-09-15T12:33:41.420Z,18.80
2018-09-15T12:34:41.405Z,18.88
2018-09-15T12:35:41.397Z,18.92
2018-09-15T12:36:41.369Z,18.88
2018-09-15T12:37:41.347Z,18.84
2018-09-15T12:38:41.335Z,18.89
2018-09-15T12:39:41.367Z,18.93
2018-09-15T12:40:41.327Z,18.99
2018-09-15T12:41:41.317Z,18.99
2018-09-15T12:42:41.299Z,18.96
2018-09-15T12:43:41.284Z,18.92
2018-09-15T12:44:41.297Z,18.96
2018-09-15T12:45:41.282Z,18.96
2018-09-15T12:46:41.252Z,18.95
2018-09-15T12:47:41.245Z,19.02
2018-09-15T12:48:41.247Z,19.11
2018-09-15T12:49:41.232Z,19.09
2018-09-15T12:50:41.215Z,19.07
2018-09-15T12:51:41.196Z,19.24
2018-09-15T12:53:42.961Z,19.39
2018-09-15T12:54:41.196Z,19.45
2018-09-15T12:55:41.156Z,19.69
2018-09-15T12:56:41.143Z,19.84
2018-09-15T12:57:41.189Z,19.91
2018-09-15T12:58:41.148Z,20.13
2018-09-15T12:59:41.140Z,20.26
2018-09-15T13:00:41.117Z,20.24
2018-09-15T13:01:41.078Z,20.18
2018-09-15T13:02:41.513Z,20.02
2018-09-15T13:03:41.055Z,19.81
2018-09-15T13:04:41.094Z,19.74
2018-09-15T13:05:41.044Z,19.70
2018-09-15T13:06:41.026Z,19.52
2018-09-15T13:08:06.336Z,19.71
2018-09-15T13:10:17.562Z,19.45
2018-09-15T13:12:01.673Z,19.34
2018-09-15T13:13:01.602Z,19.33
2018-09-15T13:14:01.584Z,19.41
2018-09-15T13:15:01.596Z,19.40
2018-09-15T13:16:01.564Z,19.34
2018-09-15T13:17:01.582Z,19.40
2018-09-15T13:18:01.544Z,19.39
2018-09-15T13:19:01.542Z,19.40
2018-09-15T13:20:01.525Z,19.52
2018-09-15T13:21:01.513Z,19.49
2018-09-15T13:22:01.488Z,19.55
2018-09-15T13:23:01.472Z,19.49
2018-09-15T13:24:01.475Z,19.49
2018-09-15T13:25:01.450Z,19.47
2018-09-15T13:26:01.483Z,19.44
2018-09-15T13:27:01.431Z,19.52
2018-09-15T13:28:01.419Z,19.58
2018-09-15T13:29:01.410Z,19.56
2018-09-15T13:30:01.479Z,19.44
2018-09-15T13:31:01.408Z,19.36
2018-09-15T13:32:01.373Z,19.18
2018-09-15T13:33:01.361Z,18.96
2018-09-15T13:34:01.369Z,18.88
2018-09-15T13:35:01.352Z,18.73
2018-09-15T13:36:01.426Z,18.70
2018-09-15T13:37:01.317Z,18.58
2018-09-15T13:38:01.309Z,18.56
2018-09-15T13:39:01.296Z,18.62
2018-09-15T13:40:01.315Z,18.52
2018-09-15T13:41:01.302Z,18.49
2018-09-15T13:42:01.445Z,18.59
2018-09-15T13:43:01.249Z,18.50
2018-09-15T13:44:01.246Z,18.56
2018-09-15T13:45:01.233Z,18.45
2018-09-15T13:46:01.221Z,18.52
2018-09-15T13:47:01.229Z,18.80
2018-09-15T13:48:01.231Z,18.78
2018-09-15T13:49:01.195Z,18.96
2018-09-15T13:50:01.185Z,19.12
2018-09-15T13:51:01.179Z,19.34
2018-09-15T13:52:01.179Z,19.48
2018-09-15T13:53:01.151Z,19.62
2018-09-15T13:54:01.133Z,19.79
2018-09-15T13:55:01.124Z,19.85
2018-09-15T13:56:01.115Z,20.00
2018-09-15T13:57:01.106Z,19.96
2018-09-15T13:58:01.083Z,19.99
2018-09-15T13:59:01.150Z,20.03
2018-09-15T14:00:01.065Z,20.11
2018-09-15T14:01:01.046Z,20.07
2018-09-15T14:02:01.055Z,19.84
2018-09-15T14:03:01.026Z,19.70
2018-09-15T14:04:01.036Z,19.49
2018-09-15T14:05:01.142Z,19.41
2018-09-15T14:06:00.997Z,19.18
2018-09-15T14:07:01.005Z,18.95
2018-09-15T14:08:00.993Z,18.95
2018-09-15T14:09:01.003Z,18.83
2018-09-15T14:10:07.044Z,18.81
2018-09-15T14:11:02.038Z,18.74
2018-09-15T14:12:00.948Z,18.80
2018-09-15T14:13:00.931Z,18.74
2018-09-15T14:15:02.088Z,18.70
2018-09-15T14:16:00.898Z,18.83
2018-09-15T14:17:00.898Z,18.84
2018-09-15T14:18:00.882Z,18.70
2018-09-15T14:19:00.846Z,18.62
2018-09-15T14:20:00.837Z,18.68
2018-09-15T14:21:00.822Z,18.65
2018-09-15T14:22:00.867Z,18.70
2018-09-15T14:23:00.832Z,18.70
2018-09-15T14:24:00.793Z,18.73
2018-09-15T14:25:00.787Z,18.60
2018-09-15T14:26:00.801Z,18.56
2018-09-15T14:27:00.755Z,18.55
2018-09-15T14:28:00.793Z,18.49
2018-09-15T14:29:00.737Z,18.47
2018-09-15T14:30:00.731Z,18.41
2018-09-15T14:31:00.718Z,18.34
2018-09-15T14:32:00.701Z,18.33
2018-09-15T14:33:00.691Z,18.34
2018-09-15T14:34:00.706Z,18.35
2018-09-15T14:35:00.690Z,18.25
2018-09-15T14:36:00.672Z,18.28
2018-09-15T14:37:00.648Z,18.25
2018-09-15T14:38:00.670Z,18.22
2018-09-15T14:39:00.651Z,18.16
2018-09-15T14:40:00.612Z,18.28
2018-09-15T14:41:00.609Z,18.13
2018-09-15T14:42:00.590Z,18.13
2018-09-15T14:43:00.575Z,18.18
2018-09-15T14:44:00.595Z,18.16
2018-09-15T14:45:00.557Z,18.19
2018-09-15T14:46:00.544Z,18.16
2018-09-15T14:47:00.547Z,18.18
2018-09-15T14:48:00.530Z,18.22
2018-09-15T14:49:00.543Z,18.23
2018-09-15T14:50:00.498Z,18.34
2018-09-15T14:51:00.490Z,18.40
2018-09-15T14:52:00.482Z,18.41
2018-09-15T14:53:00.476Z,18.41
2018-09-15T14:54:00.485Z,18.33
2018-09-15T14:55:00.467Z,18.31
2018-09-15T14:56:00.476Z,18.35
2018-09-15T14:57:00.418Z,18.34
2018-09-15T14:58:00.407Z,18.33
2018-09-15T14:59:00.444Z,18.41
2018-09-15T15:00:00.438Z,18.40
2018-09-15T15:01:00.379Z,18.45
2018-09-15T15:02:00.386Z,18.47
2018-09-15T15:03:00.357Z,18.44
2018-09-15T15:04:00.347Z,18.50
2018-09-15T15:09:51.909Z,18.50
2018-09-15T15:10:51.875Z,18.47
2018-09-15T15:11:51.858Z,18.40
2018-09-15T15:12:51.844Z,18.43
2018-09-15T15:13:51.839Z,18.45
2018-09-15T15:14:51.858Z,18.44
2018-09-15T15:15:51.848Z,18.47
2018-09-15T15:16:51.813Z,18.35
2018-09-15T15:17:51.793Z,18.31
2018-09-15T15:18:51.799Z,18.44
2018-09-15T15:19:51.762Z,18.49
2018-09-15T15:20:51.781Z,18.49
2018-09-15T15:21:51.756Z,18.53
2018-09-15T15:22:51.745Z,18.60
2018-09-15T15:23:51.724Z,18.65
2018-09-15T15:24:51.724Z,18.81
2018-09-15T15:25:51.824Z,18.84
2018-09-15T15:26:51.688Z,18.86
2018-09-15T15:27:51.682Z,18.81
2018-09-15T15:28:51.661Z,18.81
2018-09-15T15:29:51.671Z,18.84
2018-09-15T15:30:51.669Z,18.84
2018-09-15T15:32:52.776Z,18.84
2018-09-15T15:33:51.611Z,18.81
2018-09-15T15:34:51.598Z,18.77
2018-09-15T15:35:51.628Z,18.96
2018-09-15T15:36:51.582Z,18.90
2018-09-15T15:37:51.564Z,18.86
2018-09-15T15:38:51.556Z,18.70
2018-09-15T15:39:51.547Z,18.68
2018-09-15T15:40:51.550Z,18.73
2018-09-15T15:41:51.543Z,18.68
2018-09-15T15:42:51.509Z,18.53
2018-09-15T15:43:51.581Z,18.55
2018-09-15T15:44:51.491Z,18.52
2018-09-15T15:45:51.493Z,18.53
2018-09-15T15:46:51.461Z,18.49
2018-09-15T15:47:51.452Z,18.55
2018-09-15T15:48:51.447Z,18.55
2018-09-15T15:49:51.441Z,18.45
2018-09-15T15:50:51.456Z,18.44
2018-09-15T15:51:51.421Z,18.45
2018-09-15T15:52:51.395Z,18.41
2018-09-15T15:53:51.386Z,18.43
2018-09-15T15:54:51.386Z,18.29
2018-09-15T15:55:51.364Z,18.41
2018-09-15T15:56:51.422Z,18.38
2018-09-15T15:57:51.349Z,18.37
2018-09-15T15:58:51.504Z,18.25
2018-09-15T15:59:51.340Z,18.31
2018-09-15T16:01:52.454Z,18.22
2018-09-15T16:02:51.284Z,18.22
2018-09-15T16:03:51.274Z,18.26
2018-09-15T16:04:51.314Z,18.26
2018-09-15T16:05:51.253Z,18.19
2018-09-15T16:06:51.289Z,18.20
2018-09-15T16:07:51.312Z,18.15
2018-09-15T16:08:51.260Z,18.11
2018-09-15T16:09:51.214Z,18.11
2018-09-15T16:10:51.202Z,18.16
2018-09-15T16:11:51.199Z,18.15
2018-09-15T16:12:51.217Z,17.97
2018-09-15T16:13:51.217Z,18.08
2018-09-15T16:14:51.173Z,17.86
2018-09-15T16:15:51.144Z,17.87
2018-09-15T16:16:51.225Z,17.92
2018-09-15T16:17:51.114Z,17.79
2018-09-15T16:18:51.117Z,17.78
2018-09-15T16:19:51.124Z,17.79
2018-09-15T16:20:51.104Z,17.78
2018-09-15T16:21:51.077Z,17.79
2018-09-15T16:22:51.075Z,17.72
2018-09-15T16:23:51.064Z,17.79
2018-09-15T16:24:51.134Z,17.78
2018-09-15T16:26:52.957Z,17.72
2018-09-15T16:27:51.058Z,17.76
2018-09-15T16:28:50.996Z,17.78
2018-09-15T16:29:51.003Z,17.72
2018-09-15T16:30:50.981Z,17.74
2018-09-15T16:31:50.999Z,17.74
2018-09-15T16:32:50.970Z,17.76
2018-09-15T16:33:50.941Z,17.76
2018-09-15T16:34:50.924Z,17.74
2018-09-15T16:35:50.907Z,17.70
2018-09-15T16:36:50.908Z,17.67
2018-09-15T16:37:50.923Z,17.63
2018-09-15T16:38:50.882Z,17.79
2018-09-15T16:39:50.878Z,17.70
2018-09-15T16:40:50.853Z,17.64
2018-09-15T16:41:50.841Z,17.65
2018-09-15T16:42:50.862Z,17.59
2018-09-15T16:43:50.845Z,17.60
2018-09-15T16:44:50.822Z,17.54
2018-09-15T16:45:50.808Z,17.42
2018-09-15T16:46:50.788Z,17.44
2018-09-15T16:47:50.789Z,17.42
2018-09-15T16:48:50.793Z,17.42
2018-09-15T16:49:50.752Z,17.36
2018-09-15T16:50:50.745Z,17.29
2018-09-15T16:51:50.751Z,17.31
2018-09-15T16:52:50.724Z,17.26
2018-09-15T16:53:50.721Z,17.27
2018-09-15T16:54:50.699Z,17.26
2018-09-15T16:55:50.684Z,17.20
2018-09-15T16:56:50.738Z,17.19
2018-09-15T16:57:50.662Z,17.16
2018-09-15T16:58:50.669Z,17.19
2018-09-15T16:59:50.635Z,17.12
2018-09-15T17:01:51.767Z,17.12
2018-09-15T17:02:50.614Z,17.05
2018-09-15T17:03:50.628Z,16.99
2018-09-15T17:04:50.602Z,16.99
2018-09-15T17:05:50.569Z,17.01
2018-09-15T17:06:50.556Z,16.97
2018-09-15T17:07:50.597Z,16.84
2018-09-15T17:08:50.552Z,16.84
2018-09-15T17:09:50.539Z,16.93
2018-09-15T17:10:50.520Z,16.81
2018-09-15T17:11:50.510Z,16.84
2018-09-15T17:12:50.506Z,16.76
2018-09-15T17:13:50.478Z,16.79
2018-09-15T17:14:50.502Z,16.78
2018-09-15T17:15:50.470Z,16.79
2018-09-15T17:16:50.533Z,16.71
2018-09-15T17:17:50.449Z,16.74
2018-09-15T17:19:50.523Z,16.68
2018-09-15T17:20:50.411Z,16.68
2018-09-15T17:21:50.407Z,16.65
2018-09-15T17:22:50.380Z,16.68
2018-09-15T17:23:50.373Z,16.66
2018-09-15T17:24:50.383Z,16.66
2018-09-15T17:25:50.442Z,16.58
2018-09-15T17:26:50.346Z,16.58
2018-09-15T17:27:50.339Z,16.54
2018-09-15T17:28:50.313Z,16.50
2018-09-15T17:29:50.359Z,16.50
2018-09-15T17:30:50.333Z,16.39
2018-09-15T17:31:50.278Z,16.43
2018-09-15T17:33:51.314Z,16.35
2018-09-15T17:34:50.261Z,16.38
2018-09-15T17:35:50.242Z,16.31
2018-09-15T17:36:50.275Z,16.29
2018-09-15T17:37:50.208Z,16.26
2018-09-15T17:38:50.204Z,16.20
2018-09-15T17:39:50.352Z,16.16
2018-09-15T17:40:50.176Z,15.94
2018-09-15T17:41:50.167Z,16.02
2018-09-15T17:42:50.163Z,15.97
2018-09-15T17:43:50.160Z,15.94
2018-09-15T17:44:50.141Z,15.90
2018-09-15T17:45:50.163Z,15.86
2018-09-15T17:46:50.113Z,15.72
2018-09-15T17:47:50.104Z,15.77
2018-09-15T17:49:51.272Z,15.68
2018-09-15T17:50:50.099Z,15.57
2018-09-15T17:51:50.056Z,15.58
2018-09-15T17:52:50.066Z,15.52
2018-09-15T17:54:35.082Z,15.52
2018-09-15T17:54:51.131Z,15.49
2018-09-15T17:55:50.025Z,15.43
2018-09-15T17:56:50.006Z,15.47
2018-09-15T17:57:49.989Z,15.42
2018-09-15T17:59:51.111Z,15.25
2018-09-15T18:00:50.010Z,15.15
2018-09-15T18:01:49.942Z,15.18
2018-09-15T18:02:49.940Z,15.22
2018-09-15T18:03:49.939Z,15.15
2018-09-15T18:04:49.915Z,15.09
2018-09-15T18:05:49.931Z,15.15
2018-09-15T18:06:49.925Z,15.19
2018-09-15T18:07:49.898Z,15.03
2018-09-15T18:08:49.866Z,15.00
2018-09-15T18:09:49.874Z,15.07
2018-09-15T18:10:49.891Z,14.97
2018-09-15T18:12:10.841Z,14.97
2018-09-15T18:12:49.841Z,14.94
2018-09-15T18:13:49.817Z,14.92
2018-09-15T18:14:49.823Z,14.91
2018-09-15T18:15:49.816Z,14.85
2018-09-15T18:16:49.999Z,14.79
2018-09-15T18:17:49.793Z,14.84
2018-09-15T18:18:49.764Z,14.78
2018-09-15T18:19:49.746Z,14.73
2018-09-15T18:20:49.753Z,14.81
2018-09-15T18:21:49.802Z,14.62
2018-09-15T18:22:49.719Z,14.69
2018-09-15T18:23:49.705Z,14.68
2018-09-15T18:24:49.704Z,14.66
2018-09-15T18:25:49.688Z,14.65
2018-09-15T18:26:49.686Z,14.58
2018-09-15T18:27:49.662Z,14.51
2018-09-15T18:28:49.643Z,14.53
2018-09-15T18:29:49.769Z,14.53
2018-09-15T18:30:49.690Z,14.53
2018-09-15T18:31:49.777Z,14.43
2018-09-15T18:32:49.687Z,14.47
2018-09-15T18:33:49.847Z,14.47
2018-09-15T18:34:49.585Z,14.41
2018-09-15T18:35:49.640Z,14.36
2018-09-15T18:36:49.837Z,14.30
2018-09-15T18:37:49.551Z,14.32
2018-09-15T18:38:49.528Z,14.28
2018-09-15T18:39:49.515Z,14.35
2018-09-15T18:40:49.527Z,14.22
2018-09-15T18:41:49.527Z,14.17
2018-09-15T18:42:49.505Z,14.17
2018-09-15T18:43:49.497Z,14.11
2018-09-15T18:44:49.467Z,14.05
2018-09-15T18:45:49.448Z,14.05
2018-09-15T18:46:49.464Z,13.96
2018-09-15T18:47:49.426Z,14.03
2018-09-15T18:48:49.463Z,13.95
2018-09-15T18:49:49.402Z,14.04
2018-09-15T18:50:49.532Z,13.92
2018-09-15T18:51:49.419Z,13.93
2018-09-15T18:52:49.399Z,13.90
2018-09-15T18:53:49.360Z,13.87
2018-09-15T18:54:49.344Z,13.81
2018-09-15T18:55:49.410Z,13.78
2018-09-15T18:56:49.329Z,13.77
2018-09-15T18:57:49.544Z,13.67
2018-09-15T18:58:49.319Z,13.67
2018-09-15T18:59:49.290Z,13.67
2018-09-15T19:00:49.282Z,13.70
2018-09-15T19:01:49.286Z,13.63
2018-09-15T19:02:49.268Z,13.62
2018-09-15T19:03:49.248Z,13.67
2018-09-15T19:04:49.245Z,13.60
2018-09-15T19:05:49.257Z,13.60
2018-09-15T19:06:49.211Z,13.56
2018-09-15T19:07:49.265Z,13.50
2018-09-15T19:08:49.178Z,13.53
2018-09-15T19:09:49.169Z,13.50
2018-09-15T19:10:49.164Z,13.42
2018-09-15T19:11:49.143Z,13.46
2018-09-15T19:12:49.157Z,13.44
2018-09-15T19:13:49.163Z,13.47
2018-09-15T19:14:49.160Z,13.49
2018-09-15T19:15:49.112Z,13.46
2018-09-15T19:16:49.097Z,13.38
2018-09-15T19:17:49.091Z,13.38
2018-09-15T19:18:49.088Z,13.39
2018-09-15T19:19:49.051Z,13.35
2018-09-15T19:20:49.095Z,13.37
2018-09-15T19:21:49.061Z,13.41
2018-09-15T19:22:49.019Z,13.37
2018-09-15T19:23:49.025Z,13.39
2018-09-15T19:24:48.997Z,13.42
2018-09-15T19:25:48.989Z,13.27
2018-09-15T19:26:49.138Z,13.39
2018-09-15T19:27:48.960Z,13.27
2018-09-15T19:28:48.985Z,13.30
2018-09-15T19:29:48.950Z,13.30
2018-09-15T19:30:48.927Z,13.31
2018-09-15T19:31:48.916Z,13.30
2018-09-15T19:32:49.007Z,13.37
2018-09-15T19:33:48.916Z,13.31
2018-09-15T19:34:48.891Z,13.37
2018-09-15T19:35:48.871Z,13.23
2018-09-15T19:36:48.867Z,13.27
2018-09-15T19:37:48.856Z,13.25
2018-09-15T19:38:48.866Z,13.31
2018-09-15T19:39:48.859Z,13.31
2018-09-15T19:40:48.855Z,13.28
2018-09-15T19:41:48.917Z,13.25
2018-09-15T19:42:48.853Z,13.31
2018-09-15T19:43:48.824Z,13.20
2018-09-15T19:44:48.786Z,13.25
2018-09-15T19:45:48.768Z,13.22
2018-09-15T19:46:48.769Z,13.25
2018-09-15T19:47:48.768Z,13.23
2018-09-15T19:48:48.748Z,13.20
2018-09-15T19:49:48.767Z,13.33
2018-09-15T19:50:48.701Z,13.23
2018-09-15T19:51:48.681Z,13.20
2018-09-15T19:52:48.677Z,13.27
2018-09-15T19:53:48.659Z,13.23
2018-09-15T19:54:48.769Z,13.20
2018-09-15T19:55:48.719Z,13.18
2018-09-15T19:56:48.633Z,13.20
2018-09-15T19:57:48.624Z,13.30
2018-09-15T19:59:49.757Z,13.27
2018-09-15T20:00:48.632Z,13.25
2018-09-15T20:01:48.587Z,13.25
2018-09-15T20:02:48.559Z,13.23
2018-09-15T20:03:48.584Z,13.25
2018-09-15T20:04:48.624Z,13.25
2018-09-15T20:05:48.530Z,13.25
2018-09-15T20:06:48.512Z,13.25
2018-09-15T20:07:48.504Z,13.19
2018-09-15T20:08:48.489Z,13.18
2018-09-15T20:09:48.500Z,13.19
2018-09-15T20:10:48.497Z,13.16
2018-09-15T20:11:48.462Z,13.18
2018-09-15T20:12:48.485Z,13.16
2018-09-15T20:13:48.440Z,13.15
2018-09-15T20:14:48.452Z,13.15
2018-09-15T20:15:48.416Z,13.04
2018-09-15T20:16:48.403Z,13.04
2018-09-15T20:17:48.414Z,13.01
2018-09-15T20:18:48.384Z,13.03
2018-09-15T20:19:48.367Z,13.04
2018-09-15T20:20:48.524Z,13.03
2018-09-15T20:21:48.362Z,12.95
2018-09-15T20:22:48.373Z,12.98
2018-09-15T20:23:48.317Z,12.94
2018-09-15T20:24:48.326Z,12.95
2018-09-15T20:25:48.320Z,12.97
2018-09-15T20:26:48.296Z,12.94
2018-09-15T20:27:48.331Z,12.95
2018-09-15T20:28:48.260Z,12.91
2018-09-15T20:29:48.247Z,12.91
2018-09-15T20:30:48.274Z,12.85
2018-09-15T20:31:48.231Z,12.75
2018-09-15T20:32:48.293Z,12.83
2018-09-15T20:33:48.200Z,12.85
2018-09-15T20:34:48.191Z,12.75
2018-09-15T20:35:48.189Z,12.67
2018-09-15T20:36:48.202Z,12.70
2018-09-15T20:37:48.182Z,12.70
2018-09-15T20:38:48.184Z,12.70
2018-09-15T20:39:48.208Z,12.55
2018-09-15T20:40:48.125Z,12.55
2018-09-15T20:41:48.144Z,12.57
2018-09-15T20:42:48.128Z,12.54
2018-09-15T20:43:48.109Z,12.54
2018-09-15T20:44:48.101Z,12.57
2018-09-15T20:45:48.066Z,12.54
2018-09-15T20:46:48.111Z,12.53
2018-09-15T20:47:48.063Z,12.46
2018-09-15T20:48:48.060Z,12.40
2018-09-15T20:49:48.026Z,12.45
2018-09-15T20:50:48.030Z,12.39
2018-09-15T20:51:48.331Z,12.42
2018-09-15T20:52:48.026Z,12.49
2018-09-15T20:53:47.990Z,12.45
2018-09-15T20:54:48.010Z,12.46
2018-09-15T20:55:47.964Z,12.39
2018-09-15T20:56:47.972Z,12.40
2018-09-15T20:57:47.956Z,12.37
2018-09-15T20:58:47.919Z,12.37
2018-09-15T20:59:47.922Z,12.36
2018-09-15T21:00:47.902Z,12.31
2018-09-15T21:01:47.901Z,12.32
2018-09-15T21:02:47.947Z,12.29
2018-09-15T21:03:47.877Z,12.27
2018-09-15T21:04:47.867Z,12.29
2018-09-15T21:05:47.858Z,12.29
2018-09-15T21:06:47.905Z,12.27
2018-09-15T21:07:47.890Z,12.24
2018-09-15T21:08:47.808Z,12.25
2018-09-15T21:09:47.808Z,12.22
2018-09-15T21:10:47.811Z,12.20
2018-09-15T21:11:47.798Z,12.22
2018-09-15T21:12:47.913Z,12.15
2018-09-15T21:13:47.755Z,12.18
2018-09-15T21:14:47.752Z,12.18
2018-09-15T21:15:47.755Z,12.15
2018-09-15T21:16:47.772Z,12.15
2018-09-15T21:17:47.769Z,12.12
2018-09-15T21:18:47.704Z,12.06
2018-09-15T21:19:47.690Z,12.10
2018-09-15T21:20:47.711Z,12.02
2018-09-15T21:21:47.678Z,12.06
2018-09-15T21:22:47.707Z,11.97
2018-09-15T21:23:47.663Z,12.02
2018-09-15T21:24:47.638Z,11.99
2018-09-15T21:25:47.645Z,12.02
2018-09-15T21:26:47.616Z,12.02
2018-09-15T21:27:47.611Z,12.03
2018-09-15T21:28:47.619Z,11.99
2018-09-15T21:29:47.585Z,11.97
2018-09-15T21:30:47.591Z,11.87
2018-09-15T21:31:47.561Z,11.97
2018-09-15T21:32:47.562Z,11.97
2018-09-15T21:33:47.567Z,11.91
2018-09-15T21:34:47.523Z,11.95
2018-09-15T21:35:47.521Z,11.88
2018-09-15T21:36:47.509Z,11.81
2018-09-15T21:37:47.488Z,11.86
2018-09-15T21:38:47.592Z,11.83
2018-09-15T21:39:47.489Z,11.88
2018-09-15T21:40:47.462Z,11.81
2018-09-15T21:41:47.457Z,11.86
2018-09-15T21:42:47.447Z,11.78
2018-09-15T21:43:47.452Z,11.75
2018-09-15T21:44:47.429Z,11.84
2018-09-15T21:45:47.407Z,11.83
2018-09-15T21:46:47.399Z,11.83
2018-09-15T21:47:47.386Z,11.90
2018-09-15T21:48:47.415Z,11.84
2018-09-15T21:49:47.916Z,11.90
2018-09-15T21:50:47.361Z,11.75
2018-09-15T21:51:47.335Z,11.91
2018-09-15T21:52:47.330Z,11.81
2018-09-15T21:53:47.334Z,11.77
2018-09-15T21:54:47.341Z,11.81
2018-09-15T21:55:47.302Z,11.87
2018-09-15T21:56:47.289Z,11.83
2018-09-15T21:57:47.271Z,11.80
2018-09-15T21:58:47.266Z,11.83
2018-09-15T21:59:47.273Z,11.78
2018-09-15T22:01:48.387Z,11.73
2018-09-15T22:03:48.352Z,11.69
2018-09-15T22:04:48.911Z,11.68
2018-09-15T22:05:47.185Z,11.75
2018-09-15T22:06:47.169Z,11.68
2018-09-15T22:07:47.168Z,11.66
2018-09-15T22:08:47.145Z,11.59
2018-09-15T22:09:47.156Z,11.55
2018-09-15T22:10:47.125Z,11.62
2018-09-15T22:11:47.118Z,11.62
2018-09-15T22:12:47.120Z,11.65
2018-09-15T22:13:47.095Z,11.51
2018-09-15T22:14:47.121Z,11.59
2018-09-15T22:15:47.174Z,11.48
2018-09-15T22:16:47.084Z,11.48
2018-09-15T22:20:48.170Z,11.54
2018-09-15T22:21:47.001Z,11.54
2018-09-15T22:22:47.024Z,11.52
2018-09-15T22:23:46.989Z,11.54
2018-09-15T22:24:46.968Z,11.50
2018-09-15T22:25:46.981Z,11.48
2018-09-15T22:26:46.958Z,11.50
2018-09-15T22:27:46.938Z,11.52
2018-09-15T22:28:46.933Z,11.57
2018-09-15T22:29:46.928Z,11.50
2018-09-15T22:30:46.919Z,11.50
2018-09-15T22:31:46.947Z,11.45
2018-09-15T22:32:46.893Z,11.44
2018-09-15T22:33:46.867Z,11.44
2018-09-15T22:34:46.861Z,11.50
2018-09-15T22:35:46.894Z,11.40
2018-09-15T22:36:46.837Z,11.51
2018-09-15T22:37:46.830Z,11.41
2018-09-15T22:38:46.812Z,11.36
2018-09-15T22:39:46.802Z,11.44
2018-09-15T22:40:46.811Z,11.45
2018-09-15T22:41:46.780Z,11.45
2018-09-15T22:42:46.779Z,11.37
2018-09-15T22:43:46.756Z,11.37
2018-09-15T22:44:46.742Z,11.36
2018-09-15T22:45:46.818Z,11.41
2018-09-15T22:46:46.718Z,11.32
2018-09-15T22:47:46.726Z,11.32
2018-09-15T22:48:46.700Z,11.36
2018-09-15T22:49:46.701Z,11.30
2018-09-15T22:50:46.692Z,11.26
2018-09-15T22:51:46.693Z,11.27
2018-09-15T22:52:46.679Z,11.23
2018-09-15T22:53:46.643Z,11.17
2018-09-15T22:54:46.632Z,11.23
2018-09-15T22:55:46.626Z,11.26
2018-09-15T22:56:46.626Z,11.14
2018-09-15T22:57:46.615Z,11.27
2018-09-15T22:58:46.588Z,11.22
2018-09-15T22:59:46.579Z,11.19
2018-09-15T23:00:46.588Z,11.12
2018-09-15T23:01:46.577Z,11.23
2018-09-15T23:02:46.577Z,11.10
2018-09-15T23:03:46.541Z,11.10
2018-09-15T23:04:46.536Z,11.14
2018-09-15T23:05:46.517Z,11.02
2018-09-15T23:06:46.514Z,11.05
2018-09-15T23:07:46.484Z,11.10
2018-09-15T23:08:46.478Z,10.99
2018-09-15T23:09:46.474Z,11.05
2018-09-15T23:11:47.610Z,11.00
2018-09-15T23:12:46.452Z,10.99
2018-09-15T23:13:46.416Z,10.96
2018-09-15T23:14:46.409Z,10.99
2018-09-15T23:15:46.394Z,10.90
2018-09-15T23:16:46.391Z,10.90
2018-09-15T23:17:46.390Z,10.89
2018-09-15T23:18:46.419Z,10.86
2018-09-15T23:19:46.350Z,10.94
2018-09-15T23:20:46.339Z,10.90
2018-09-15T23:21:46.346Z,10.87
2018-09-15T23:22:46.463Z,10.94
2018-09-15T23:23:46.307Z,10.82
2018-09-15T23:24:46.302Z,10.79
2018-09-15T23:25:46.295Z,10.82
2018-09-15T23:26:46.275Z,10.76